createdAt,value
2018-11-27T00:02:10.318Z,100321.09
2018-11-27T00:07:12.918Z,100318.13
2018-11-27T00:12:15.425Z,100319.31
2018-11-27T00:17:18.069Z,100325.45
2018-11-27T00:22:20.539Z,100327.08
2018-11-27T00:27:22.979Z,100327.42
2018-11-27T00:32:25.533Z,100327.42
2018-11-27T00:37:28.074Z,100345.02
2018-11-27T00:42:30.549Z,100340.59
2018-11-27T00:47:33.421Z,100339.56
2018-11-27T00:52:35.827Z,100347.12
2018-11-27T00:57:38.855Z,100354.64
2018-11-27T01:02:41.250Z,100356.20
2018-11-27T01:07:44.164Z,100360.16
2018-11-27T01:12:46.647Z,100362.98
2018-11-27T01:17:51.435Z,100378.47
2018-11-27T01:22:53.945Z,100386.05
2018-11-27T01:27:56.389Z,100380.45
2018-11-27T01:32:58.773Z,100381.56
2018-11-27T01:38:01.215Z,100373.86
2018-11-27T01:43:03.929Z,100383.64
2018-11-27T01:48:06.429Z,100391.77
2018-11-27T01:53:09.052Z,100384.98
2018-11-27T01:58:11.551Z,100390.52
2018-11-27T02:03:14.246Z,100387.13
2018-11-27T02:08:16.814Z,100390.86
2018-11-27T02:13:19.192Z,100386.96
2018-11-27T02:18:21.819Z,100385.31
2018-11-27T02:23:24.450Z,100390.30
2018-11-27T02:28:27.152Z,100390.05
2018-11-27T02:33:29.738Z,100391.97
2018-11-27T02:38:32.355Z,100385.89
2018-11-27T02:43:35.811Z,100391.52
2018-11-27T02:48:38.369Z,100391.52
2018-11-27T02:53:40.923Z,100397.22
2018-11-27T02:58:43.357Z,100387.14
2018-11-27T03:03:45.833Z,100394.13
2018-11-27T03:08:48.403Z,100401.75
2018-11-27T03:13:50.876Z,100401.31
2018-11-27T03:18:53.256Z,100408.29
2018-11-27T03:23:55.793Z,100400.73
2018-11-27T03:28:58.227Z,100404.27
2018-11-27T03:34:00.886Z,100405.94
2018-11-27T03:39:05.857Z,100406.75
2018-11-27T03:44:08.515Z,100415.56
2018-11-27T03:49:10.985Z,100420.43
2018-11-27T03:54:13.409Z,100423.64
2018-11-27T03:59:15.884Z,100428.91
2018-11-27T04:04:18.481Z,100427.02
2018-11-27T04:09:21.025Z,100433.37
2018-11-27T04:14:23.495Z,100435.55
2018-11-27T04:19:25.937Z,100439.06
2018-11-27T04:24:28.378Z,100446.38
2018-11-27T04:29:30.868Z,100446.11
2018-11-27T04:34:33.662Z,100450.97
2018-11-27T04:39:36.142Z,100453.70
2018-11-27T04:44:38.544Z,100457.22
2018-11-27T04:49:40.988Z,100455.91
2018-11-27T04:54:43.360Z,100454.47
2018-11-27T04:59:45.834Z,100463.27
2018-11-27T05:04:48.326Z,100474.97
2018-11-27T05:09:50.738Z,100489.68
2018-11-27T05:14:53.184Z,100486.30
2018-11-27T05:19:55.582Z,100496.05
2018-11-27T05:24:58.044Z,100497.52
2018-11-27T05:30:00.425Z,100505.66
2018-11-27T05:35:03.176Z,100497.36
2018-11-27T05:40:09.234Z,100506.03
2018-11-27T05:45:14.119Z,100505.94
2018-11-27T05:50:17.217Z,100507.44
2018-11-27T05:55:19.644Z,100512.80
2018-11-27T06:00:24.350Z,100518.95
2018-11-27T06:05:33.935Z,100529.17
2018-11-27T06:10:36.436Z,100530.45
2018-11-27T06:20:48.027Z,100544.38
2018-11-27T06:25:51.199Z,100553.89
2018-11-27T06:30:53.654Z,100551.52
2018-11-27T06:35:56.116Z,100553.30
2018-11-27T06:40:58.611Z,100562.31
2018-11-27T06:46:01.142Z,100574.17
2018-11-27T06:51:03.963Z,100580.30
2018-11-27T06:56:06.729Z,100582.52
2018-11-27T07:01:09.129Z,100585.91
2018-11-27T07:06:11.519Z,100586.88
2018-11-27T07:11:14.013Z,100598.44
2018-11-27T07:16:16.509Z,100608.25
2018-11-27T07:21:19.207Z,100617.73
2018-11-27T07:26:21.908Z,100624.67
2018-11-27T07:31:24.355Z,100628.78
2018-11-27T07:36:26.887Z,100627.25
2018-11-27T07:41:29.394Z,100641.55
2018-11-27T07:46:31.958Z,100644.48
2018-11-27T07:51:34.416Z,100651.66
2018-11-27T07:56:37.674Z,100645.39
2018-11-27T08:01:40.291Z,100654.30
2018-11-27T08:06:42.761Z,100660.70
2018-11-27T08:11:45.265Z,100671.19
2018-11-27T08:16:47.718Z,100679.48
2018-11-27T08:21:50.183Z,100685.77
2018-11-27T08:26:52.764Z,100685.97
2018-11-27T08:31:55.204Z,100693.81
2018-11-27T08:36:57.710Z,100692.31
2018-11-27T08:42:00.212Z,100705.13
2018-11-27T08:47:02.715Z,100718.75
2018-11-27T08:52:05.261Z,100719.06
2018-11-27T08:57:07.744Z,100720.69
2018-11-27T09:02:10.396Z,100726.51
2018-11-27T09:07:12.791Z,100727.09
2018-11-27T09:12:15.290Z,100726.19
2018-11-27T09:17:17.802Z,100745.22
2018-11-27T09:22:20.285Z,100737.53
2018-11-27T09:27:22.753Z,100742.66
2018-11-27T09:32:25.236Z,100746.90
2018-11-27T09:37:27.758Z,100756.48
2018-11-27T09:42:30.231Z,100760.39
2018-11-27T09:47:32.634Z,100768.13
2018-11-27T09:52:35.040Z,100765.80
2018-11-27T09:57:37.531Z,100772.98
2018-11-27T10:02:40.036Z,100770.75
2018-11-27T10:07:42.491Z,100770.26
2018-11-27T10:12:44.979Z,100771.44
2018-11-27T10:17:51.747Z,100772.80
2018-11-27T10:22:54.276Z,100775.28
2018-11-27T10:27:56.975Z,100779.34
2018-11-27T10:32:59.445Z,100786.23
2018-11-27T10:38:02.179Z,100783.19
2018-11-27T10:43:05.198Z,100781.97
2018-11-27T10:48:07.688Z,100782.37
2018-11-27T10:53:11.254Z,100786.89
2018-11-27T10:58:13.787Z,100787.80
2018-11-27T11:03:46.847Z,100796.06
2018-11-27T11:08:49.292Z,100798.75
2018-11-27T11:13:51.805Z,100798.42
2018-11-27T11:18:54.286Z,100802.38
2018-11-27T11:23:56.799Z,100794.97
2018-11-27T11:28:59.334Z,100801.59
2018-11-27T11:34:01.779Z,100801.69
2018-11-27T11:39:08.391Z,100800.19
2018-11-27T11:44:10.871Z,100803.92
2018-11-27T11:49:13.334Z,100813.92
2018-11-27T11:54:15.717Z,100812.14
2018-11-27T11:59:18.239Z,100812.92
2018-11-27T12:04:20.784Z,100813.70
2018-11-27T12:09:23.256Z,100812.92
2018-11-27T12:14:25.756Z,100810.87
2018-11-27T12:19:28.214Z,100827.86
2018-11-27T12:24:30.943Z,100828.40
2018-11-27T12:29:33.396Z,100821.81
2018-11-27T12:34:35.829Z,100830.91
2018-11-27T12:39:38.388Z,100830.22
2018-11-27T12:44:40.823Z,100840.67
2018-11-27T12:49:43.300Z,100841.98
2018-11-27T12:54:46.075Z,100842.89
2018-11-27T12:59:48.527Z,100843.60
2018-11-27T13:04:50.973Z,100855.55
2018-11-27T13:09:53.474Z,100850.19
2018-11-27T13:14:55.889Z,100846.03
2018-11-27T13:19:58.386Z,100847.77
2018-11-27T13:25:00.906Z,100849.04
2018-11-27T13:30:04.410Z,100856.41
2018-11-27T13:35:09.327Z,100853.61
2018-11-27T13:40:12.404Z,100855.31
2018-11-27T13:45:15.501Z,100851.30
2018-11-27T13:50:17.936Z,100855.29
2018-11-27T13:55:21.543Z,100858.00
2018-11-27T14:00:24.099Z,100867.64
2018-11-27T14:05:26.616Z,100871.26
2018-11-27T14:10:29.248Z,100874.69
2018-11-27T14:15:31.734Z,100883.65
2018-11-27T14:20:34.249Z,100892.00
2018-11-27T14:25:36.678Z,100894.72
2018-11-27T14:30:39.190Z,100898.41
2018-11-27T14:35:41.669Z,100892.80
2018-11-27T14:40:44.156Z,100898.41
2018-11-27T14:45:46.634Z,100904.77
2018-11-27T14:50:49.026Z,100912.11
2018-11-27T14:55:51.574Z,100915.78
2018-11-27T15:00:54.005Z,100920.78
2018-11-27T15:05:56.470Z,100927.43
2018-11-27T15:10:58.985Z,100926.15
2018-11-27T15:16:01.368Z,100924.03
2018-11-27T15:21:04.162Z,100932.27
2018-11-27T15:26:06.629Z,100930.96
2018-11-27T15:31:09.099Z,100942.04
2018-11-27T15:36:11.588Z,100945.85
2018-11-27T15:41:14.113Z,100956.45
2018-11-27T15:46:16.626Z,100975.84
2018-11-27T15:51:19.153Z,100972.59
2018-11-27T15:56:21.711Z,100961.23
2018-11-27T16:01:24.211Z,100966.98
2018-11-27T16:06:26.653Z,100971.72
2018-11-27T16:11:30.140Z,100959.30
2018-11-27T16:16:32.636Z,100968.92
2018-11-27T16:21:35.119Z,100976.41
2018-11-27T16:26:37.695Z,100990.91
2018-11-27T16:31:40.218Z,100990.44
2018-11-27T16:36:43.355Z,100983.44
2018-11-27T16:41:45.951Z,100991.75
2018-11-27T16:46:48.361Z,100991.34
2018-11-27T16:51:50.787Z,100998.33
2018-11-27T16:56:53.507Z,100999.75
2018-11-27T17:01:56.046Z,101004.05
2018-11-27T17:06:58.519Z,101009.70
2018-11-27T17:12:01.045Z,101007.45
2018-11-27T17:17:03.774Z,101018.23
2018-11-27T17:22:07.123Z,101007.89
2018-11-27T17:27:09.200Z,101015.89
2018-11-27T17:32:11.762Z,101014.52
2018-11-27T17:37:14.236Z,101017.24
2018-11-27T17:42:16.711Z,101019.78
2018-11-27T17:47:19.065Z,101008.45
2018-11-27T17:52:21.625Z,101011.50
2018-11-27T17:57:24.299Z,101015.86
2018-11-27T18:02:27.035Z,101025.08
2018-11-27T18:07:29.770Z,101025.11
2018-11-27T18:12:33.713Z,101036.60
2018-11-27T18:17:34.997Z,101040.45
2018-11-27T18:22:37.781Z,101036.98
2018-11-27T18:27:40.699Z,101044.47
2018-11-27T18:32:43.287Z,101058.97
2018-11-27T18:37:46.162Z,101050.50
2018-11-27T18:42:48.867Z,101052.17
2018-11-27T18:47:51.420Z,101043.80
2018-11-27T18:52:53.945Z,101044.02
2018-11-27T18:57:56.397Z,101050.02
2018-11-27T19:02:58.847Z,101066.84
2018-11-27T19:08:01.643Z,101072.79
2018-11-27T19:13:05.592Z,101072.94
2018-11-27T19:18:19.780Z,101077.41
2018-11-27T19:23:25.185Z,101082.16
2018-11-27T19:28:27.696Z,101080.81
2018-11-27T19:33:30.262Z,101072.82
2018-11-27T19:38:32.777Z,101075.88
2018-11-27T19:43:35.359Z,101082.48
2018-11-27T19:48:38.028Z,101087.66
2018-11-27T19:53:40.692Z,101083.23
2018-11-27T19:58:43.280Z,101079.77
2018-11-27T20:03:46.292Z,101084.58
2018-11-27T20:08:49.123Z,101075.30
2018-11-27T20:13:52.018Z,101074.49
2018-11-27T20:18:54.694Z,101078.44
2018-11-27T20:23:57.272Z,101071.92
2018-11-27T20:28:59.971Z,101070.89
2018-11-27T20:34:02.643Z,101067.94
2018-11-27T20:39:08.595Z,101074.46
2018-11-27T20:44:11.396Z,101074.55
2018-11-27T20:49:14.349Z,101086.73
2018-11-27T20:54:18.396Z,101082.36
2018-11-27T20:59:28.466Z,101099.06
2018-11-27T21:04:36.090Z,101099.90
2018-11-27T21:09:45.486Z,101100.83
2018-11-27T21:14:50.758Z,101108.22
2018-11-27T21:19:54.557Z,101105.64
2018-11-27T21:24:57.370Z,101108.63
2018-11-27T21:35:24.822Z,101108.66
2018-11-27T21:40:37.060Z,101114.80
2018-11-27T21:45:45.520Z,101119.20
2018-11-27T21:50:49.828Z,101121.73
2018-11-27T21:55:52.522Z,101118.66
2018-11-27T22:00:55.035Z,101131.05
2018-11-27T22:05:57.718Z,101135.41
2018-11-27T22:11:06.804Z,101134.09
2018-11-27T22:16:09.323Z,101139.88
2018-11-27T22:21:11.832Z,101144.63
2018-11-27T22:26:14.322Z,101141.19
2018-11-27T22:31:16.822Z,101148.28
2018-11-27T22:36:19.292Z,101145.20
2018-11-27T22:41:21.787Z,101145.77
2018-11-27T22:46:24.287Z,101142.54
2018-11-27T22:51:27.085Z,101146.52
2018-11-27T22:56:29.569Z,101142.12
2018-11-27T23:01:38.451Z,101144.33
2018-11-27T23:06:42.039Z,101143.02
2018-11-27T23:11:44.771Z,101149.23
2018-11-27T23:16:47.324Z,101156.19
2018-11-27T23:21:49.812Z,101159.34
2018-11-27T23:26:52.362Z,101154.53
2018-11-27T23:31:55.279Z,101152.67
2018-11-27T23:36:57.952Z,101138.31
2018-11-27T23:42:00.469Z,101147.89
2018-11-27T23:47:03.024Z,101147.53
2018-11-27T23:52:05.719Z,101145.28
2018-11-27T23:57:08.194Z,101139.52
